Date,TemperatureHighF,TemperatureAvgF,TemperatureLowF,DewpointHighF,DewpointAvgF,DewpointLowF,HumidityHigh,HumidityAvg,HumidityLow,PressureMaxIn,PressureMinIn,WindSpeedMaxMPH,WindSpeedAvgMPH,GustSpeedMaxMPH,PrecipitationSumIn
2013-5-1,48,41,32,29,28,26,85,61,46,29.80,29.47,0,0,0,0.00
2013-5-2,46,46,37,36,29,28,92,51,50,29.88,29.49,0,0,0,0.00
2013-5-3,44,39,36,42,37,34,96,92,86,29.91,29.84,0,0,0,0.56
2013-5-4,43,38,34,37,33,30,95,82,65,29.89,29.65,3,0,3,0.38
2013-5-5,51,43,38,34,29,25,83,58,46,30.11,29.88,0,0,0,0.00
2013-5-6,48,40,29,36,32,27,92,76,59,30.25,30.11,0,0,0,0.00
2013-5-7,46,40,34,35,32,30,89,75,59,30.27,30.23,0,0,0,0.00
2013-5-8,54,45,31,34,30,27,89,58,39,30.25,30.19,0,0,0,0.00
2013-5-9,58,43,31,40,34,28,92,73,48,30.30,30.18,0,0,0,0.03
2013-5-10,61,46,36,41,34,28,88,66,31,30.20,29.96,0,0,0,0.00
2013-5-11,53,46,39,43,40,37,94,82,62,29.96,29.53,0,0,0,0.08
2013-5-12,55,46,42,45,41,38,94,84,58,29.53,29.45,0,0,0,0.13
2013-5-13,50,44,40,45,40,38,95,88,71,29.45,29.36,0,0,0,0.22
2013-5-14,42,38,33,38,34,29,93,85,64,29.61,29.42,2,0,2,0.31
2013-5-15,47,38,28,36,31,26,92,74,54,29.79,29.61,0,0,0,0.00
2013-5-16,40,36,32,38,34,31,94,92,85,29.75,29.44,0,0,0,0.85
2013-5-17,45,40,35,39,35,30,95,84,65,29.43,29.34,7,0,7,0.11
2013-5-18,40,36,34,30,25,23,72,64,62,29.60,29.42,6,0,6,0.00
2013-5-19,48,37,35,23,22,17,62,57,30,30.56,29.60,0,0,0,0.00
2013-5-20,52,42,32,30,24,18,72,48,33,30.61,30.52,0,0,0,0.00
2013-5-21,52,43,33,35,30,27,78,62,45,30.53,30.27,0,0,0,0.00
2013-5-22,51,44,37,41,37,31,87,78,64,30.27,30.12,0,0,0,0.00
2013-5-23,56,48,39,44,41,37,91,78,63,30.14,30.07,0,0,0,0.00
2013-5-24,60,53,42,45,42,39,92,67,46,30.02,29.97,0,0,0,0.00
2013-5-25,52,43,38,43,39,36,95,88,71,30.03,29.96,0,0,0,0.00
2013-5-26,47,43,39,44,40,36,94,90,82,29.98,29.88,0,0,0,0.24
2013-5-27,57,48,42,46,43,41,95,83,65,29.92,29.74,0,0,0,0.00
2013-5-28,79,60,43,46,41,38,87,54,24,29.74,29.59,0,0,0,0.00
2013-5-29,62,62,62,45,45,45,55,55,55,29.61,29.61,0,0,0,0.00
2013-5-30,62,62,62,45,45,45,55,55,55,29.61,29.61,0,0,0,0.00
2013-5-31,62,62,62,45,45,45,55,55,55,29.61,29.61,0,0,0,0.00